Leesten, Netherlands
Current Conditions -  °F | °C
As of 11:25 PM on Wednesday 22 Oct 2014 (Local Time) from EHDL Reporting Station
Few Clouds Few Clouds  
Wind Chill: 46°   Ceiling: Unl
Heat Index: 46°   Visibility: 6mi
Dew Point: 45°   Wind: 2mph
Humidity: 93%   Direction: 150°SSE
Pressure: 30.15"   Gusts: NA
Location:  52.13°N, 6.23°E
Report Text: EHDL 222125Z AUTO 15002KT 9999 FEW050 08/07 Q1021 BLU
Loading
Personal Weather Stations






























Interactive Weather Map
Tropical Storm Tracking
New forecast layout! Learn more

10-Day Weather Forecast

Advertisements
Track Severe Weather on mobile